sensor_id;sensor_type;location;lat;lon;timestamp;P1;durP1;ratioP1;P2;durP2;ratioP2
2338;SDS011;1180;51.438;6.978;2023-05-23T00:01:13;8.20;;;7.40;;
2338;SDS011;1180;51.438;6.978;2023-05-23T00:03:40;8.83;;;7.57;;
2338;SDS011;1180;51.438;6.978;2023-05-23T00:06:06;7.17;;;6.47;;
2338;SDS011;1180;51.438;6.978;2023-05-23T00:08:31;7.20;;;6.50;;
2338;SDS011;1180;51.438;6.978;2023-05-23T00:10:56;8.63;;;7.43;;
2338;SDS011;1180;51.438;6.978;2023-05-23T00:13:22;7.50;;;6.57;;
2338;SDS011;1180;51.438;6.978;2023-05-23T00:15:47;9.83;;;7.13;;
2338;SDS011;1180;51.438;6.978;2023-05-23T00:18:13;7.10;;;6.40;;
2338;SDS011;1180;51.438;6.978;2023-05-23T00:20:39;6.00;;;5.50;;
2338;SDS011;1180;51.438;6.978;2023-05-23T00:23:07;6.30;;;5.57;;
2338;SDS011;1180;51.438;6.978;2023-05-23T00:25:33;6.30;;;5.70;;
2338;SDS011;1180;51.438;6.978;2023-05-23T00:27:59;6.00;;;5.27;;
2338;SDS011;1180;51.438;6.978;2023-05-23T00:30:25;7.00;;;4.90;;
2338;SDS011;1180;51.438;6.978;2023-05-23T00:32:52;5.67;;;5.17;;
2338;SDS011;1180;51.438;6.978;2023-05-23T00:35:21;9.33;;;5.13;;
2338;SDS011;1180;51.438;6.978;2023-05-23T00:37:47;5.60;;;5.10;;
2338;SDS011;1180;51.438;6.978;2023-05-23T00:40:15;4.90;;;4.30;;
2338;SDS011;1180;51.438;6.978;2023-05-23T00:42:44;5.10;;;4.60;;
2338;SDS011;1180;51.438;6.978;2023-05-23T00:45:10;5.30;;;4.80;;
2338;SDS011;1180;51.438;6.978;2023-05-23T00:47:38;5.20;;;4.67;;
2338;SDS011;1180;51.438;6.978;2023-05-23T00:50:08;5.60;;;5.10;;
2338;SDS011;1180;51.438;6.978;2023-05-23T00:52:36;6.50;;;5.53;;
2338;SDS011;1180;51.438;6.978;2023-05-23T00:55:02;5.90;;;4.17;;
2338;SDS011;1180;51.438;6.978;2023-05-23T00:57:28;5.17;;;4.27;;
2338;SDS011;1180;51.438;6.978;2023-05-23T00:59:53;5.40;;;4.93;;
2338;SDS011;1180;51.438;6.978;2023-05-23T01:05:42;5.00;;;4.60;;
2338;SDS011;1180;51.438;6.978;2023-05-23T01:08:08;4.07;;;3.73;;
2338;SDS011;1180;51.438;6.978;2023-05-23T01:10:33;5.47;;;4.97;;
2338;SDS011;1180;51.438;6.978;2023-05-23T01:16:02;5.10;;;4.60;;
2338;SDS011;1180;51.438;6.978;2023-05-23T01:18:33;5.40;;;4.40;;
2338;SDS011;1180;51.438;6.978;2023-05-23T01:21:05;4.80;;;4.40;;
2338;SDS011;1180;51.438;6.978;2023-05-23T01:27:02;5.63;;;4.60;;
2338;SDS011;1180;51.438;6.978;2023-05-23T01:29:37;5.27;;;4.77;;
2338;SDS011;1180;51.438;6.978;2023-05-23T01:32:09;5.57;;;4.33;;
2338;SDS011;1180;51.438;6.978;2023-05-23T01:34:36;6.03;;;4.20;;
2338;SDS011;1180;51.438;6.978;2023-05-23T01:37:06;5.03;;;4.60;;
2338;SDS011;1180;51.438;6.978;2023-05-23T01:39:34;5.13;;;4.67;;
2338;SDS011;1180;51.438;6.978;2023-05-23T01:41:59;4.60;;;4.10;;
2338;SDS011;1180;51.438;6.978;2023-05-23T01:44:25;4.20;;;3.90;;
2338;SDS011;1180;51.438;6.978;2023-05-23T01:46:51;4.23;;;3.60;;
2338;SDS011;1180;51.438;6.978;2023-05-23T01:49:16;4.30;;;3.90;;
2338;SDS011;1180;51.438;6.978;2023-05-23T01:51:44;6.37;;;4.50;;
2338;SDS011;1180;51.438;6.978;2023-05-23T01:54:10;5.67;;;4.90;;
2338;SDS011;1180;51.438;6.978;2023-05-23T01:56:36;7.47;;;4.90;;
2338;SDS011;1180;51.438;6.978;2023-05-23T01:59:02;5.23;;;4.73;;
2338;SDS011;1180;51.438;6.978;2023-05-23T02:01:28;6.00;;;5.40;;
2338;SDS011;1180;51.438;6.978;2023-05-23T02:03:54;5.87;;;5.37;;
2338;SDS011;1180;51.438;6.978;2023-05-23T02:06:19;5.50;;;5.00;;
2338;SDS011;1180;51.438;6.978;2023-05-23T02:08:44;6.60;;;5.10;;
2338;SDS011;1180;51.438;6.978;2023-05-23T02:11:10;6.20;;;4.60;;
2338;SDS011;1180;51.438;6.978;2023-05-23T02:13:35;6.27;;;5.67;;
2338;SDS011;1180;51.438;6.978;2023-05-23T02:16:00;5.10;;;4.33;;
2338;SDS011;1180;51.438;6.978;2023-05-23T02:18:26;5.70;;;5.07;;
2338;SDS011;1180;51.438;6.978;2023-05-23T02:20:53;5.30;;;4.80;;
2338;SDS011;1180;51.438;6.978;2023-05-23T02:23:20;6.30;;;5.70;;
2338;SDS011;1180;51.438;6.978;2023-05-23T02:25:45;5.20;;;4.50;;
2338;SDS011;1180;51.438;6.978;2023-05-23T02:28:11;6.90;;;5.27;;
2338;SDS011;1180;51.438;6.978;2023-05-23T02:30:37;10.40;;;7.27;;
2338;SDS011;1180;51.438;6.978;2023-05-23T02:33:05;7.20;;;5.70;;
2338;SDS011;1180;51.438;6.978;2023-05-23T02:35:31;7.83;;;6.23;;
2338;SDS011;1180;51.438;6.978;2023-05-23T02:37:57;7.80;;;6.10;;
2338;SDS011;1180;51.438;6.978;2023-05-23T02:40:22;6.57;;;5.43;;
2338;SDS011;1180;51.438;6.978;2023-05-23T02:42:48;7.97;;;6.10;;
2338;SDS011;1180;51.438;6.978;2023-05-23T02:45:15;7.60;;;5.50;;
2338;SDS011;1180;51.438;6.978;2023-05-23T02:47:40;7.20;;;5.47;;
2338;SDS011;1180;51.438;6.978;2023-05-23T02:50:06;6.57;;;5.73;;
2338;SDS011;1180;51.438;6.978;2023-05-23T02:52:31;7.40;;;5.93;;
2338;SDS011;1180;51.438;6.978;2023-05-23T02:54:57;9.23;;;6.13;;
2338;SDS011;1180;51.438;6.978;2023-05-23T02:57:22;7.90;;;5.20;;
2338;SDS011;1180;51.438;6.978;2023-05-23T02:59:47;6.20;;;5.43;;
2338;SDS011;1180;51.438;6.978;2023-05-23T03:02:13;6.93;;;5.27;;
2338;SDS011;1180;51.438;6.978;2023-05-23T03:04:38;8.57;;;4.97;;
2338;SDS011;1180;51.438;6.978;2023-05-23T03:07:03;6.57;;;4.60;;
2338;SDS011;1180;51.438;6.978;2023-05-23T03:09:30;6.23;;;4.30;;
2338;SDS011;1180;51.438;6.978;2023-05-23T03:11:56;7.00;;;4.97;;
2338;SDS011;1180;51.438;6.978;2023-05-23T03:14:21;8.13;;;5.00;;
2338;SDS011;1180;51.438;6.978;2023-05-23T03:16:46;9.60;;;5.20;;
2338;SDS011;1180;51.438;6.978;2023-05-23T03:19:12;5.73;;;4.60;;
2338;SDS011;1180;51.438;6.978;2023-05-23T03:21:37;8.07;;;5.20;;
2338;SDS011;1180;51.438;6.978;2023-05-23T03:24:02;7.60;;;5.33;;
2338;SDS011;1180;51.438;6.978;2023-05-23T03:26:28;6.83;;;4.67;;
2338;SDS011;1180;51.438;6.978;2023-05-23T03:28:53;6.27;;;4.23;;
2338;SDS011;1180;51.438;6.978;2023-05-23T03:31:18;6.27;;;4.70;;
2338;SDS011;1180;51.438;6.978;2023-05-23T03:33:44;5.33;;;4.83;;
2338;SDS011;1180;51.438;6.978;2023-05-23T03:36:09;6.73;;;4.40;;
2338;SDS011;1180;51.438;6.978;2023-05-23T03:38:35;7.50;;;5.13;;
2338;SDS011;1180;51.438;6.978;2023-05-23T03:41:00;9.40;;;5.87;;
2338;SDS011;1180;51.438;6.978;2023-05-23T03:43:25;7.03;;;5.17;;
2338;SDS011;1180;51.438;6.978;2023-05-23T03:45:51;8.07;;;5.90;;
2338;SDS011;1180;51.438;6.978;2023-05-23T03:48:16;6.90;;;5.50;;
2338;SDS011;1180;51.438;6.978;2023-05-23T03:50:42;5.50;;;5.00;;
2338;SDS011;1180;51.438;6.978;2023-05-23T03:53:07;8.57;;;6.00;;
2338;SDS011;1180;51.438;6.978;2023-05-23T03:55:32;9.07;;;5.27;;
2338;SDS011;1180;51.438;6.978;2023-05-23T03:57:58;6.80;;;5.20;;
2338;SDS011;1180;51.438;6.978;2023-05-23T04:00:24;10.30;;;6.40;;
2338;SDS011;1180;51.438;6.978;2023-05-23T04:02:50;10.33;;;6.70;;
2338;SDS011;1180;51.438;6.978;2023-05-23T04:05:16;9.23;;;7.07;;
2338;SDS011;1180;51.438;6.978;2023-05-23T04:07:41;9.70;;;6.63;;
2338;SDS011;1180;51.438;6.978;2023-05-23T04:10:07;9.23;;;7.03;;
2338;SDS011;1180;51.438;6.978;2023-05-23T04:12:33;11.30;;;7.10;;
2338;SDS011;1180;51.438;6.978;2023-05-23T04:14:59;8.40;;;7.00;;
2338;SDS011;1180;51.438;6.978;2023-05-23T04:17:24;10.50;;;6.67;;
2338;SDS011;1180;51.438;6.978;2023-05-23T04:19:54;8.87;;;6.13;;
2338;SDS011;1180;51.438;6.978;2023-05-23T04:22:20;10.60;;;7.10;;
2338;SDS011;1180;51.438;6.978;2023-05-23T04:24:45;7.50;;;6.40;;
2338;SDS011;1180;51.438;6.978;2023-05-23T04:27:11;8.57;;;6.60;;
2338;SDS011;1180;51.438;6.978;2023-05-23T04:29:37;8.63;;;7.00;;
2338;SDS011;1180;51.438;6.978;2023-05-23T04:32:03;8.27;;;6.80;;
2338;SDS011;1180;51.438;6.978;2023-05-23T04:34:30;9.60;;;6.33;;
2338;SDS011;1180;51.438;6.978;2023-05-23T04:37:00;12.63;;;7.10;;
2338;SDS011;1180;51.438;6.978;2023-05-23T04:39:26;16.83;;;6.23;;
2338;SDS011;1180;51.438;6.978;2023-05-23T04:41:53;10.73;;;7.07;;
2338;SDS011;1180;51.438;6.978;2023-05-23T04:44:18;11.17;;;7.67;;
2338;SDS011;1180;51.438;6.978;2023-05-23T04:46:44;13.07;;;7.27;;
2338;SDS011;1180;51.438;6.978;2023-05-23T04:49:10;11.73;;;7.30;;
2338;SDS011;1180;51.438;6.978;2023-05-23T04:51:36;11.00;;;7.60;;
2338;SDS011;1180;51.438;6.978;2023-05-23T04:54:02;11.50;;;7.60;;
2338;SDS011;1180;51.438;6.978;2023-05-23T04:56:28;10.63;;;7.77;;
2338;SDS011;1180;51.438;6.978;2023-05-23T04:58:53;8.67;;;6.87;;
2338;SDS011;1180;51.438;6.978;2023-05-23T05:01:20;13.80;;;8.37;;
2338;SDS011;1180;51.438;6.978;2023-05-23T05:03:48;8.27;;;5.80;;
2338;SDS011;1180;51.438;6.978;2023-05-23T05:06:14;11.20;;;7.90;;
2338;SDS011;1180;51.438;6.978;2023-05-23T05:08:40;10.80;;;7.03;;
2338;SDS011;1180;51.438;6.978;2023-05-23T05:11:05;10.47;;;7.60;;
2338;SDS011;1180;51.438;6.978;2023-05-23T05:13:31;11.27;;;7.30;;
2338;SDS011;1180;51.438;6.978;2023-05-23T05:15:56;8.83;;;6.50;;
2338;SDS011;1180;51.438;6.978;2023-05-23T05:18:22;9.57;;;7.73;;
2338;SDS011;1180;51.438;6.978;2023-05-23T05:20:49;10.83;;;6.80;;
2338;SDS011;1180;51.438;6.978;2023-05-23T05:23:15;13.03;;;7.60;;
2338;SDS011;1180;51.438;6.978;2023-05-23T05:25:40;11.37;;;8.27;;
2338;SDS011;1180;51.438;6.978;2023-05-23T05:28:05;12.57;;;8.40;;
2338;SDS011;1180;51.438;6.978;2023-05-23T05:30:31;12.10;;;9.10;;
2338;SDS011;1180;51.438;6.978;2023-05-23T05:33:03;12.33;;;8.20;;
2338;SDS011;1180;51.438;6.978;2023-05-23T05:35:31;17.00;;;9.50;;
2338;SDS011;1180;51.438;6.978;2023-05-23T05:37:57;9.70;;;8.37;;
2338;SDS011;1180;51.438;6.978;2023-05-23T05:40:23;10.53;;;8.13;;
2338;SDS011;1180;51.438;6.978;2023-05-23T05:42:49;12.47;;;9.60;;
2338;SDS011;1180;51.438;6.978;2023-05-23T05:45:14;11.43;;;8.93;;
2338;SDS011;1180;51.438;6.978;2023-05-23T05:47:40;10.97;;;8.03;;
2338;SDS011;1180;51.438;6.978;2023-05-23T05:50:05;16.63;;;8.37;;
2338;SDS011;1180;51.438;6.978;2023-05-23T05:52:33;16.43;;;9.23;;
2338;SDS011;1180;51.438;6.978;2023-05-23T05:55:02;14.63;;;9.37;;
2338;SDS011;1180;51.438;6.978;2023-05-23T05:57:28;12.03;;;8.30;;
2338;SDS011;1180;51.438;6.978;2023-05-23T05:59:54;12.33;;;9.23;;
2338;SDS011;1180;51.438;6.978;2023-05-23T06:02:19;13.83;;;9.40;;
2338;SDS011;1180;51.438;6.978;2023-05-23T06:04:44;10.13;;;8.30;;
2338;SDS011;1180;51.438;6.978;2023-05-23T06:07:10;11.87;;;8.23;;
2338;SDS011;1180;51.438;6.978;2023-05-23T06:09:36;14.90;;;9.20;;
2338;SDS011;1180;51.438;6.978;2023-05-23T06:12:01;12.33;;;9.00;;
2338;SDS011;1180;51.438;6.978;2023-05-23T06:14:27;14.13;;;8.57;;
2338;SDS011;1180;51.438;6.978;2023-05-23T06:16:52;8.77;;;7.43;;
2338;SDS011;1180;51.438;6.978;2023-05-23T06:19:17;12.70;;;8.37;;
2338;SDS011;1180;51.438;6.978;2023-05-23T06:21:43;12.87;;;7.87;;
2338;SDS011;1180;51.438;6.978;2023-05-23T06:24:08;13.33;;;6.73;;
2338;SDS011;1180;51.438;6.978;2023-05-23T06:26:33;9.03;;;8.03;;
2338;SDS011;1180;51.438;6.978;2023-05-23T06:28:59;12.13;;;7.17;;
2338;SDS011;1180;51.438;6.978;2023-05-23T06:31:24;7.77;;;6.97;;
2338;SDS011;1180;51.438;6.978;2023-05-23T06:33:49;10.27;;;7.70;;
2338;SDS011;1180;51.438;6.978;2023-05-23T06:36:15;9.10;;;6.57;;
2338;SDS011;1180;51.438;6.978;2023-05-23T06:38:40;7.80;;;6.80;;
2338;SDS011;1180;51.438;6.978;2023-05-23T06:41:05;11.83;;;7.30;;
2338;SDS011;1180;51.438;6.978;2023-05-23T06:43:31;14.80;;;8.90;;
2338;SDS011;1180;51.438;6.978;2023-05-23T06:45:56;13.17;;;7.53;;
2338;SDS011;1180;51.438;6.978;2023-05-23T06:48:21;11.33;;;6.97;;
2338;SDS011;1180;51.438;6.978;2023-05-23T06:50:47;9.37;;;7.07;;
2338;SDS011;1180;51.438;6.978;2023-05-23T06:53:13;10.10;;;7.60;;
2338;SDS011;1180;51.438;6.978;2023-05-23T06:55:40;9.13;;;7.07;;
2338;SDS011;1180;51.438;6.978;2023-05-23T06:58:05;9.83;;;6.93;;
2338;SDS011;1180;51.438;6.978;2023-05-23T07:00:30;9.03;;;8.13;;
2338;SDS011;1180;51.438;6.978;2023-05-23T07:02:56;9.93;;;7.20;;
2338;SDS011;1180;51.438;6.978;2023-05-23T07:05:28;11.60;;;8.23;;
2338;SDS011;1180;51.438;6.978;2023-05-23T07:07:53;8.43;;;6.90;;
2338;SDS011;1180;51.438;6.978;2023-05-23T07:10:18;11.20;;;7.37;;
2338;SDS011;1180;51.438;6.978;2023-05-23T07:12:45;12.37;;;8.17;;
2338;SDS011;1180;51.438;6.978;2023-05-23T07:15:10;11.60;;;7.67;;
2338;SDS011;1180;51.438;6.978;2023-05-23T07:17:36;9.77;;;7.27;;
2338;SDS011;1180;51.438;6.978;2023-05-23T07:20:02;10.33;;;7.80;;
2338;SDS011;1180;51.438;6.978;2023-05-23T07:22:28;13.60;;;7.90;;
2338;SDS011;1180;51.438;6.978;2023-05-23T07:24:54;12.03;;;6.63;;
2338;SDS011;1180;51.438;6.978;2023-05-23T07:27:20;11.17;;;7.30;;
2338;SDS011;1180;51.438;6.978;2023-05-23T07:29:45;16.83;;;7.50;;
2338;SDS011;1180;51.438;6.978;2023-05-23T07:32:11;12.80;;;8.30;;
2338;SDS011;1180;51.438;6.978;2023-05-23T07:34:36;13.00;;;6.57;;
2338;SDS011;1180;51.438;6.978;2023-05-23T07:37:01;8.00;;;6.43;;
2338;SDS011;1180;51.438;6.978;2023-05-23T07:39:27;9.07;;;6.70;;
2338;SDS011;1180;51.438;6.978;2023-05-23T07:41:52;10.83;;;6.27;;
2338;SDS011;1180;51.438;6.978;2023-05-23T07:44:17;10.67;;;6.33;;
2338;SDS011;1180;51.438;6.978;2023-05-23T07:46:43;16.83;;;7.33;;
2338;SDS011;1180;51.438;6.978;2023-05-23T07:49:08;9.17;;;7.27;;
2338;SDS011;1180;51.438;6.978;2023-05-23T07:51:33;7.43;;;6.60;;
2338;SDS011;1180;51.438;6.978;2023-05-23T07:53:59;13.40;;;7.20;;
2338;SDS011;1180;51.438;6.978;2023-05-23T07:56:24;8.73;;;7.07;;
2338;SDS011;1180;51.438;6.978;2023-05-23T07:58:50;9.30;;;6.80;;
2338;SDS011;1180;51.438;6.978;2023-05-23T08:01:16;11.17;;;7.43;;
2338;SDS011;1180;51.438;6.978;2023-05-23T08:03:42;12.00;;;7.73;;
2338;SDS011;1180;51.438;6.978;2023-05-23T08:06:07;11.60;;;7.83;;
2338;SDS011;1180;51.438;6.978;2023-05-23T08:08:33;13.20;;;6.90;;
2338;SDS011;1180;51.438;6.978;2023-05-23T08:11:00;12.80;;;7.03;;
2338;SDS011;1180;51.438;6.978;2023-05-23T08:13:25;8.07;;;6.13;;
2338;SDS011;1180;51.438;6.978;2023-05-23T08:15:50;10.10;;;7.00;;
2338;SDS011;1180;51.438;6.978;2023-05-23T08:18:16;9.53;;;6.10;;
2338;SDS011;1180;51.438;6.978;2023-05-23T08:20:42;11.13;;;7.17;;
2338;SDS011;1180;51.438;6.978;2023-05-23T08:23:07;12.10;;;7.47;;
2338;SDS011;1180;51.438;6.978;2023-05-23T08:25:33;8.97;;;6.43;;
2338;SDS011;1180;51.438;6.978;2023-05-23T08:27:58;9.90;;;8.27;;
2338;SDS011;1180;51.438;6.978;2023-05-23T08:30:25;10.00;;;6.90;;
2338;SDS011;1180;51.438;6.978;2023-05-23T08:32:52;14.80;;;7.13;;
2338;SDS011;1180;51.438;6.978;2023-05-23T08:35:17;13.40;;;7.73;;
2338;SDS011;1180;51.438;6.978;2023-05-23T08:37:43;8.30;;;6.90;;
2338;SDS011;1180;51.438;6.978;2023-05-23T08:40:13;10.30;;;6.90;;
2338;SDS011;1180;51.438;6.978;2023-05-23T08:42:42;13.40;;;7.10;;
2338;SDS011;1180;51.438;6.978;2023-05-23T08:45:08;11.87;;;6.67;;
2338;SDS011;1180;51.438;6.978;2023-05-23T08:47:35;12.73;;;7.37;;
2338;SDS011;1180;51.438;6.978;2023-05-23T08:50:02;9.23;;;7.70;;
2338;SDS011;1180;51.438;6.978;2023-05-23T08:52:30;11.13;;;6.83;;
2338;SDS011;1180;51.438;6.978;2023-05-23T08:54:57;13.67;;;6.97;;
2338;SDS011;1180;51.438;6.978;2023-05-23T08:57:24;11.27;;;7.63;;
2338;SDS011;1180;51.438;6.978;2023-05-23T08:59:50;12.77;;;7.90;;
2338;SDS011;1180;51.438;6.978;2023-05-23T09:02:16;12.90;;;6.60;;
2338;SDS011;1180;51.438;6.978;2023-05-23T09:04:42;13.63;;;7.77;;
2338;SDS011;1180;51.438;6.978;2023-05-23T09:07:07;13.00;;;7.17;;
2338;SDS011;1180;51.438;6.978;2023-05-23T09:09:35;13.13;;;8.10;;
2338;SDS011;1180;51.438;6.978;2023-05-23T09:12:01;12.07;;;7.47;;
2338;SDS011;1180;51.438;6.978;2023-05-23T09:14:27;17.33;;;8.37;;
2338;SDS011;1180;51.438;6.978;2023-05-23T09:16:59;14.67;;;8.20;;
2338;SDS011;1180;51.438;6.978;2023-05-23T09:19:26;8.80;;;6.40;;
2338;SDS011;1180;51.438;6.978;2023-05-23T09:21:52;9.80;;;6.20;;
2338;SDS011;1180;51.438;6.978;2023-05-23T09:24:18;13.57;;;6.97;;
2338;SDS011;1180;51.438;6.978;2023-05-23T09:26:47;10.50;;;6.87;;
2338;SDS011;1180;51.438;6.978;2023-05-23T09:29:13;11.03;;;6.60;;
2338;SDS011;1180;51.438;6.978;2023-05-23T09:31:38;8.53;;;6.50;;
2338;SDS011;1180;51.438;6.978;2023-05-23T09:34:04;9.00;;;6.00;;
2338;SDS011;1180;51.438;6.978;2023-05-23T09:36:31;11.27;;;6.10;;
2338;SDS011;1180;51.438;6.978;2023-05-23T09:39:03;9.30;;;5.60;;
2338;SDS011;1180;51.438;6.978;2023-05-23T09:41:34;11.80;;;6.40;;
2338;SDS011;1180;51.438;6.978;2023-05-23T09:44:04;11.87;;;6.03;;
2338;SDS011;1180;51.438;6.978;2023-05-23T09:46:33;12.33;;;6.73;;
2338;SDS011;1180;51.438;6.978;2023-05-23T09:48:59;11.70;;;6.30;;
2338;SDS011;1180;51.438;6.978;2023-05-23T09:51:25;10.03;;;7.23;;
2338;SDS011;1180;51.438;6.978;2023-05-23T09:53:50;15.23;;;5.90;;
2338;SDS011;1180;51.438;6.978;2023-05-23T09:56:16;13.23;;;6.93;;
2338;SDS011;1180;51.438;6.978;2023-05-23T09:58:48;13.00;;;6.93;;
2338;SDS011;1180;51.438;6.978;2023-05-23T10:01:14;14.20;;;7.30;;
2338;SDS011;1180;51.438;6.978;2023-05-23T10:06:14;16.13;;;8.90;;
2338;SDS011;1180;51.438;6.978;2023-05-23T10:08:49;11.20;;;6.80;;
2338;SDS011;1180;51.438;6.978;2023-05-23T10:14:06;19.40;;;7.60;;
2338;SDS011;1180;51.438;6.978;2023-05-23T10:16:39;14.33;;;8.23;;
2338;SDS011;1180;51.438;6.978;2023-05-23T10:19:12;11.73;;;6.37;;
2338;SDS011;1180;51.438;6.978;2023-05-23T10:22:00;9.67;;;7.17;;
2338;SDS011;1180;51.438;6.978;2023-05-23T10:24:27;8.00;;;6.73;;
2338;SDS011;1180;51.438;6.978;2023-05-23T10:26:53;11.60;;;6.10;;
2338;SDS011;1180;51.438;6.978;2023-05-23T10:29:22;13.17;;;7.27;;
2338;SDS011;1180;51.438;6.978;2023-05-23T10:31:47;9.57;;;6.27;;
2338;SDS011;1180;51.438;6.978;2023-05-23T10:42:09;16.70;;;6.57;;
2338;SDS011;1180;51.438;6.978;2023-05-23T10:44:40;8.20;;;5.43;;
2338;SDS011;1180;51.438;6.978;2023-05-23T10:47:05;9.37;;;4.80;;
2338;SDS011;1180;51.438;6.978;2023-05-23T10:52:02;14.00;;;6.10;;
2338;SDS011;1180;51.438;6.978;2023-05-23T10:54:33;6.80;;;5.00;;
2338;SDS011;1180;51.438;6.978;2023-05-23T10:57:03;9.23;;;6.20;;
2338;SDS011;1180;51.438;6.978;2023-05-23T10:59:29;10.37;;;5.73;;
2338;SDS011;1180;51.438;6.978;2023-05-23T11:01:55;6.73;;;5.03;;
2338;SDS011;1180;51.438;6.978;2023-05-23T11:04:25;7.70;;;5.17;;
2338;SDS011;1180;51.438;6.978;2023-05-23T11:06:52;9.70;;;5.10;;
2338;SDS011;1180;51.438;6.978;2023-05-23T11:09:21;13.17;;;6.73;;
2338;SDS011;1180;51.438;6.978;2023-05-23T11:14:18;7.00;;;5.10;;
2338;SDS011;1180;51.438;6.978;2023-05-23T11:16:45;9.60;;;6.17;;
2338;SDS011;1180;51.438;6.978;2023-05-23T11:21:44;8.07;;;6.03;;
2338;SDS011;1180;51.438;6.978;2023-05-23T11:24:14;10.50;;;5.70;;
2338;SDS011;1180;51.438;6.978;2023-05-23T11:26:40;7.17;;;5.30;;
2338;SDS011;1180;51.438;6.978;2023-05-23T11:29:23;9.03;;;5.07;;
2338;SDS011;1180;51.438;6.978;2023-05-23T11:31:50;5.60;;;4.23;;
2338;SDS011;1180;51.438;6.978;2023-05-23T11:34:16;8.93;;;4.87;;
2338;SDS011;1180;51.438;6.978;2023-05-23T11:36:42;8.03;;;4.23;;
2338;SDS011;1180;51.438;6.978;2023-05-23T11:39:07;6.83;;;4.00;;
2338;SDS011;1180;51.438;6.978;2023-05-23T11:41:33;9.43;;;4.50;;
2338;SDS011;1180;51.438;6.978;2023-05-23T11:43:59;12.43;;;4.47;;
2338;SDS011;1180;51.438;6.978;2023-05-23T11:46:25;8.37;;;4.43;;
2338;SDS011;1180;51.438;6.978;2023-05-23T11:48:51;8.47;;;4.00;;
2338;SDS011;1180;51.438;6.978;2023-05-23T11:51:17;5.43;;;3.23;;
2338;SDS011;1180;51.438;6.978;2023-05-23T11:53:43;6.80;;;3.40;;
2338;SDS011;1180;51.438;6.978;2023-05-23T11:56:09;8.73;;;3.73;;
2338;SDS011;1180;51.438;6.978;2023-05-23T11:58:35;8.93;;;4.10;;
2338;SDS011;1180;51.438;6.978;2023-05-23T12:01:11;7.60;;;3.47;;
2338;SDS011;1180;51.438;6.978;2023-05-23T12:03:44;11.07;;;4.13;;
2338;SDS011;1180;51.438;6.978;2023-05-23T12:06:13;9.67;;;3.70;;
2338;SDS011;1180;51.438;6.978;2023-05-23T12:08:40;6.23;;;3.50;;
2338;SDS011;1180;51.438;6.978;2023-05-23T12:11:05;10.67;;;3.30;;
2338;SDS011;1180;51.438;6.978;2023-05-23T12:13:31;7.10;;;3.10;;
2338;SDS011;1180;51.438;6.978;2023-05-23T12:16:00;8.27;;;4.80;;
2338;SDS011;1180;51.438;6.978;2023-05-23T12:18:29;6.93;;;3.30;;
2338;SDS011;1180;51.438;6.978;2023-05-23T12:20:59;8.53;;;3.10;;
2338;SDS011;1180;51.438;6.978;2023-05-23T12:23:27;7.50;;;3.67;;
2338;SDS011;1180;51.438;6.978;2023-05-23T12:25:56;5.43;;;3.37;;
2338;SDS011;1180;51.438;6.978;2023-05-23T12:28:40;7.10;;;4.27;;
2338;SDS011;1180;51.438;6.978;2023-05-23T12:31:19;7.90;;;3.40;;
2338;SDS011;1180;51.438;6.978;2023-05-23T12:33:46;9.40;;;3.73;;
2338;SDS011;1180;51.438;6.978;2023-05-23T12:36:12;8.47;;;4.00;;
2338;SDS011;1180;51.438;6.978;2023-05-23T12:38:39;10.67;;;3.83;;
2338;SDS011;1180;51.438;6.978;2023-05-23T12:43:50;9.50;;;3.63;;
2338;SDS011;1180;51.438;6.978;2023-05-23T12:46:16;7.73;;;3.40;;
2338;SDS011;1180;51.438;6.978;2023-05-23T12:48:42;9.60;;;4.37;;
2338;SDS011;1180;51.438;6.978;2023-05-23T12:51:07;7.20;;;4.00;;
2338;SDS011;1180;51.438;6.978;2023-05-23T12:53:33;14.40;;;4.20;;
2338;SDS011;1180;51.438;6.978;2023-05-23T12:56:00;7.27;;;4.23;;
2338;SDS011;1180;51.438;6.978;2023-05-23T12:58:25;6.17;;;3.33;;
2338;SDS011;1180;51.438;6.978;2023-05-23T13:00:51;8.03;;;4.13;;
2338;SDS011;1180;51.438;6.978;2023-05-23T13:03:16;10.80;;;3.40;;
2338;SDS011;1180;51.438;6.978;2023-05-23T13:05:42;5.03;;;3.00;;
2338;SDS011;1180;51.438;6.978;2023-05-23T13:08:07;11.17;;;3.83;;
2338;SDS011;1180;51.438;6.978;2023-05-23T13:10:33;11.60;;;3.83;;
2338;SDS011;1180;51.438;6.978;2023-05-23T13:12:58;9.60;;;3.63;;
2338;SDS011;1180;51.438;6.978;2023-05-23T13:15:24;9.23;;;3.77;;
2338;SDS011;1180;51.438;6.978;2023-05-23T13:17:49;8.93;;;3.70;;
2338;SDS011;1180;51.438;6.978;2023-05-23T13:20:14;18.17;;;4.17;;
2338;SDS011;1180;51.438;6.978;2023-05-23T13:22:40;7.23;;;3.57;;
2338;SDS011;1180;51.438;6.978;2023-05-23T13:25:06;13.50;;;4.60;;
2338;SDS011;1180;51.438;6.978;2023-05-23T13:27:32;6.40;;;3.50;;
2338;SDS011;1180;51.438;6.978;2023-05-23T13:29:57;14.17;;;4.27;;
2338;SDS011;1180;51.438;6.978;2023-05-23T13:32:23;9.20;;;3.47;;
2338;SDS011;1180;51.438;6.978;2023-05-23T13:34:48;11.73;;;4.03;;
2338;SDS011;1180;51.438;6.978;2023-05-23T13:37:14;8.70;;;3.50;;
2338;SDS011;1180;51.438;6.978;2023-05-23T13:39:39;10.80;;;3.90;;
2338;SDS011;1180;51.438;6.978;2023-05-23T13:42:04;12.80;;;4.23;;
2338;SDS011;1180;51.438;6.978;2023-05-23T13:44:31;9.47;;;3.67;;
2338;SDS011;1180;51.438;6.978;2023-05-23T13:46:57;7.73;;;3.53;;
2338;SDS011;1180;51.438;6.978;2023-05-23T13:49:33;8.23;;;4.80;;
2338;SDS011;1180;51.438;6.978;2023-05-23T13:51:59;10.37;;;4.50;;
2338;SDS011;1180;51.438;6.978;2023-05-23T13:54:24;11.07;;;4.30;;
2338;SDS011;1180;51.438;6.978;2023-05-23T13:56:49;9.80;;;4.67;;
2338;SDS011;1180;51.438;6.978;2023-05-23T13:59:15;7.50;;;3.93;;
2338;SDS011;1180;51.438;6.978;2023-05-23T14:01:45;7.27;;;3.80;;
2338;SDS011;1180;51.438;6.978;2023-05-23T14:04:10;16.07;;;5.17;;
2338;SDS011;1180;51.438;6.978;2023-05-23T14:06:35;9.10;;;3.80;;
2338;SDS011;1180;51.438;6.978;2023-05-23T14:09:01;12.60;;;4.33;;
2338;SDS011;1180;51.438;6.978;2023-05-23T14:11:26;8.80;;;4.60;;
2338;SDS011;1180;51.438;6.978;2023-05-23T14:13:52;9.17;;;4.23;;
2338;SDS011;1180;51.438;6.978;2023-05-23T14:16:17;8.40;;;4.63;;
2338;SDS011;1180;51.438;6.978;2023-05-23T14:18:43;8.50;;;4.30;;
2338;SDS011;1180;51.438;6.978;2023-05-23T14:21:09;9.27;;;3.63;;
2338;SDS011;1180;51.438;6.978;2023-05-23T14:23:34;9.60;;;3.73;;
2338;SDS011;1180;51.438;6.978;2023-05-23T14:25:59;7.77;;;4.50;;
2338;SDS011;1180;51.438;6.978;2023-05-23T14:28:25;7.33;;;3.93;;
2338;SDS011;1180;51.438;6.978;2023-05-23T14:30:51;11.73;;;4.63;;
2338;SDS011;1180;51.438;6.978;2023-05-23T14:33:16;10.63;;;3.97;;
2338;SDS011;1180;51.438;6.978;2023-05-23T14:35:42;10.53;;;3.93;;
2338;SDS011;1180;51.438;6.978;2023-05-23T14:38:07;4.63;;;3.33;;
2338;SDS011;1180;51.438;6.978;2023-05-23T14:40:33;14.47;;;5.00;;
2338;SDS011;1180;51.438;6.978;2023-05-23T14:42:58;6.83;;;3.20;;
2338;SDS011;1180;51.438;6.978;2023-05-23T14:45:23;3.67;;;3.00;;
2338;SDS011;1180;51.438;6.978;2023-05-23T14:47:49;10.70;;;3.70;;
2338;SDS011;1180;51.438;6.978;2023-05-23T14:50:14;5.90;;;2.90;;
2338;SDS011;1180;51.438;6.978;2023-05-23T14:52:40;6.50;;;3.80;;
2338;SDS011;1180;51.438;6.978;2023-05-23T14:55:05;7.30;;;3.60;;
2338;SDS011;1180;51.438;6.978;2023-05-23T14:57:31;8.70;;;4.17;;
2338;SDS011;1180;51.438;6.978;2023-05-23T14:59:56;4.87;;;3.23;;
2338;SDS011;1180;51.438;6.978;2023-05-23T15:02:21;6.70;;;3.17;;
2338;SDS011;1180;51.438;6.978;2023-05-23T15:04:47;5.43;;;3.40;;
2338;SDS011;1180;51.438;6.978;2023-05-23T15:07:12;9.60;;;4.43;;
2338;SDS011;1180;51.438;6.978;2023-05-23T15:09:41;10.60;;;3.87;;
2338;SDS011;1180;51.438;6.978;2023-05-23T15:12:07;8.93;;;3.40;;
2338;SDS011;1180;51.438;6.978;2023-05-23T15:14:33;6.20;;;3.50;;
2338;SDS011;1180;51.438;6.978;2023-05-23T15:16:59;7.70;;;3.97;;
2338;SDS011;1180;51.438;6.978;2023-05-23T15:19:31;7.00;;;3.57;;
2338;SDS011;1180;51.438;6.978;2023-05-23T15:22:00;11.93;;;3.50;;
2338;SDS011;1180;51.438;6.978;2023-05-23T15:24:26;6.13;;;3.33;;
2338;SDS011;1180;51.438;6.978;2023-05-23T15:26:52;10.10;;;3.20;;
2338;SDS011;1180;51.438;6.978;2023-05-23T15:29:17;5.50;;;3.43;;
2338;SDS011;1180;51.438;6.978;2023-05-23T15:31:43;6.30;;;3.20;;
2338;SDS011;1180;51.438;6.978;2023-05-23T15:34:09;11.13;;;4.37;;
2338;SDS011;1180;51.438;6.978;2023-05-23T15:36:34;6.30;;;2.90;;
2338;SDS011;1180;51.438;6.978;2023-05-23T15:39:00;11.70;;;3.90;;